sensor_id;sensor_type;location;lat;lon;timestamp;temperature;humidity
963;DHT22;469;48.770;9.176;2022-07-03T00:00:32;19.10;1.00
963;DHT22;469;48.770;9.176;2022-07-03T00:03:00;19.10;1.00
963;DHT22;469;48.770;9.176;2022-07-03T00:05:27;19.10;1.00
963;DHT22;469;48.770;9.176;2022-07-03T00:07:54;19.10;1.00
963;DHT22;469;48.770;9.176;2022-07-03T00:10:21;19.10;1.00
963;DHT22;469;48.770;9.176;2022-07-03T00:12:47;19.10;1.00
963;DHT22;469;48.770;9.176;2022-07-03T00:15:14;19.00;1.00
963;DHT22;469;48.770;9.176;2022-07-03T00:17:41;19.00;1.00
963;DHT22;469;48.770;9.176;2022-07-03T00:20:10;19.00;1.00
963;DHT22;469;48.770;9.176;2022-07-03T00:22:41;19.10;1.00
963;DHT22;469;48.770;9.176;2022-07-03T00:25:11;19.10;1.00
963;DHT22;469;48.770;9.176;2022-07-03T00:27:39;19.10;1.00
963;DHT22;469;48.770;9.176;2022-07-03T00:30:06;19.10;1.00
963;DHT22;469;48.770;9.176;2022-07-03T00:32:34;19.10;1.00
963;DHT22;469;48.770;9.176;2022-07-03T00:35:05;19.00;1.00
963;DHT22;469;48.770;9.176;2022-07-03T00:37:33;19.10;1.00
963;DHT22;469;48.770;9.176;2022-07-03T00:40:00;19.00;1.00
963;DHT22;469;48.770;9.176;2022-07-03T00:42:27;19.00;1.00
963;DHT22;469;48.770;9.176;2022-07-03T00:44:56;19.00;1.00
963;DHT22;469;48.770;9.176;2022-07-03T00:47:25;19.00;1.00
963;DHT22;469;48.770;9.176;2022-07-03T00:49:53;19.00;1.00
963;DHT22;469;48.770;9.176;2022-07-03T00:52:22;18.90;1.00
963;DHT22;469;48.770;9.176;2022-07-03T00:54:53;18.90;1.00
963;DHT22;469;48.770;9.176;2022-07-03T00:57:21;18.90;1.00
963;DHT22;469;48.770;9.176;2022-07-03T00:59:49;18.90;1.00
963;DHT22;469;48.770;9.176;2022-07-03T01:02:27;18.90;1.00
963;DHT22;469;48.770;9.176;2022-07-03T01:05:02;18.90;1.00
963;DHT22;469;48.770;9.176;2022-07-03T01:10:26;18.90;1.00
963;DHT22;469;48.770;9.176;2022-07-03T01:13:00;18.90;1.00
963;DHT22;469;48.770;9.176;2022-07-03T01:15:40;18.90;1.00
963;DHT22;469;48.770;9.176;2022-07-03T01:18:18;18.80;1.00
963;DHT22;469;48.770;9.176;2022-07-03T01:20:53;18.80;1.00
963;DHT22;469;48.770;9.176;2022-07-03T01:23:30;18.70;1.00
963;DHT22;469;48.770;9.176;2022-07-03T01:26:03;18.70;1.00
963;DHT22;469;48.770;9.176;2022-07-03T01:28:32;18.70;1.00
963;DHT22;469;48.770;9.176;2022-07-03T01:31:01;18.60;1.00
963;DHT22;469;48.770;9.176;2022-07-03T01:33:32;18.60;1.00
963;DHT22;469;48.770;9.176;2022-07-03T01:36:04;18.60;1.00
963;DHT22;469;48.770;9.176;2022-07-03T01:38:33;18.50;1.00
963;DHT22;469;48.770;9.176;2022-07-03T01:41:04;18.40;1.00
963;DHT22;469;48.770;9.176;2022-07-03T01:43:32;18.40;1.00
963;DHT22;469;48.770;9.176;2022-07-03T01:46:01;18.30;1.00
963;DHT22;469;48.770;9.176;2022-07-03T01:48:30;18.30;1.00
963;DHT22;469;48.770;9.176;2022-07-03T01:50:57;18.20;1.00
963;DHT22;469;48.770;9.176;2022-07-03T01:53:26;18.10;1.00
963;DHT22;469;48.770;9.176;2022-07-03T01:55:55;18.10;1.00
963;DHT22;469;48.770;9.176;2022-07-03T01:58:23;18.10;1.00
963;DHT22;469;48.770;9.176;2022-07-03T02:00:56;18.00;1.00
963;DHT22;469;48.770;9.176;2022-07-03T02:03:25;18.00;1.00
963;DHT22;469;48.770;9.176;2022-07-03T02:06:05;18.00;1.00
963;DHT22;469;48.770;9.176;2022-07-03T02:08:41;17.90;1.00
963;DHT22;469;48.770;9.176;2022-07-03T02:11:13;17.90;1.00
963;DHT22;469;48.770;9.176;2022-07-03T02:13:51;17.90;1.00
963;DHT22;469;48.770;9.176;2022-07-03T02:16:20;17.80;1.00
963;DHT22;469;48.770;9.176;2022-07-03T02:18:54;17.80;1.00
963;DHT22;469;48.770;9.176;2022-07-03T02:21:26;17.80;1.00
963;DHT22;469;48.770;9.176;2022-07-03T02:23:58;17.70;1.00
963;DHT22;469;48.770;9.176;2022-07-03T05:55:00;17.70;1.00
963;DHT22;469;48.770;9.176;2022-07-03T06:14:38;20.80;1.00
963;DHT22;469;48.770;9.176;2022-07-03T06:17:05;21.60;1.00
963;DHT22;469;48.770;9.176;2022-07-03T06:19:31;21.70;1.00
963;DHT22;469;48.770;9.176;2022-07-03T06:21:58;21.80;1.00
963;DHT22;469;48.770;9.176;2022-07-03T06:24:26;21.90;1.00
963;DHT22;469;48.770;9.176;2022-07-03T06:26:53;22.00;1.00
963;DHT22;469;48.770;9.176;2022-07-03T06:29:20;22.10;1.00
963;DHT22;469;48.770;9.176;2022-07-03T06:31:47;22.20;1.00
963;DHT22;469;48.770;9.176;2022-07-03T06:34:13;22.40;1.00
963;DHT22;469;48.770;9.176;2022-07-03T06:36:40;22.40;1.00
963;DHT22;469;48.770;9.176;2022-07-03T06:39:07;22.50;1.00
963;DHT22;469;48.770;9.176;2022-07-03T07:06:06;22.60;1.00
963;DHT22;469;48.770;9.176;2022-07-03T07:08:33;23.60;1.00
963;DHT22;469;48.770;9.176;2022-07-03T07:11:00;23.60;1.00
963;DHT22;469;48.770;9.176;2022-07-03T07:13:27;23.60;1.00
963;DHT22;469;48.770;9.176;2022-07-03T07:15:55;23.60;1.00
963;DHT22;469;48.770;9.176;2022-07-03T07:18:21;23.70;1.00
963;DHT22;469;48.770;9.176;2022-07-03T07:20:48;23.80;1.00
963;DHT22;469;48.770;9.176;2022-07-03T07:23:15;23.90;1.00
963;DHT22;469;48.770;9.176;2022-07-03T07:25:42;24.00;1.00
963;DHT22;469;48.770;9.176;2022-07-03T07:28:08;24.00;1.00
963;DHT22;469;48.770;9.176;2022-07-03T07:30:35;24.10;1.00
963;DHT22;469;48.770;9.176;2022-07-03T07:33:05;24.20;1.00
963;DHT22;469;48.770;9.176;2022-07-03T07:35:32;24.40;1.00
963;DHT22;469;48.770;9.176;2022-07-03T07:37:58;24.40;1.00
963;DHT22;469;48.770;9.176;2022-07-03T07:40:25;24.50;1.00
963;DHT22;469;48.770;9.176;2022-07-03T07:42:52;24.60;1.00
963;DHT22;469;48.770;9.176;2022-07-03T07:45:19;24.60;1.00
963;DHT22;469;48.770;9.176;2022-07-03T07:47:46;24.70;1.00
963;DHT22;469;48.770;9.176;2022-07-03T07:50:14;24.70;1.00
963;DHT22;469;48.770;9.176;2022-07-03T07:52:40;24.80;1.00
963;DHT22;469;48.770;9.176;2022-07-03T07:55:07;24.80;1.00
963;DHT22;469;48.770;9.176;2022-07-03T07:57:35;24.80;1.00
963;DHT22;469;48.770;9.176;2022-07-03T08:00:07;24.70;1.00
963;DHT22;469;48.770;9.176;2022-07-03T08:02:33;24.70;1.00
963;DHT22;469;48.770;9.176;2022-07-03T08:05:19;24.80;1.00
963;DHT22;469;48.770;9.176;2022-07-03T08:08:06;24.90;1.00
963;DHT22;469;48.770;9.176;2022-07-03T08:10:37;25.00;1.00
963;DHT22;469;48.770;9.176;2022-07-03T08:13:04;25.00;1.00
963;DHT22;469;48.770;9.176;2022-07-03T08:15:31;25.10;1.00
963;DHT22;469;48.770;9.176;2022-07-03T08:17:58;25.20;1.00
963;DHT22;469;48.770;9.176;2022-07-03T08:20:26;25.30;1.00
963;DHT22;469;48.770;9.176;2022-07-03T08:22:53;25.30;1.00
963;DHT22;469;48.770;9.176;2022-07-03T08:25:20;25.40;1.00
963;DHT22;469;48.770;9.176;2022-07-03T08:27:47;25.50;1.00
963;DHT22;469;48.770;9.176;2022-07-03T08:30:15;25.50;1.00
963;DHT22;469;48.770;9.176;2022-07-03T08:32:43;25.50;1.00
963;DHT22;469;48.770;9.176;2022-07-03T08:35:11;25.50;1.00
963;DHT22;469;48.770;9.176;2022-07-03T11:39:48;25.60;1.00
963;DHT22;469;48.770;9.176;2022-07-03T11:42:16;28.60;1.00
963;DHT22;469;48.770;9.176;2022-07-03T12:52:49;28.60;1.00
963;DHT22;469;48.770;9.176;2022-07-03T12:55:22;31.90;1.00
963;DHT22;469;48.770;9.176;2022-07-03T12:57:49;31.90;1.00
963;DHT22;469;48.770;9.176;2022-07-03T13:00:42;31.70;1.00
963;DHT22;469;48.770;9.176;2022-07-03T13:03:25;31.80;1.00
963;DHT22;469;48.770;9.176;2022-07-03T13:05:54;31.70;1.00
963;DHT22;469;48.770;9.176;2022-07-03T13:08:21;31.70;1.00
963;DHT22;469;48.770;9.176;2022-07-03T13:10:54;31.10;1.00
963;DHT22;469;48.770;9.176;2022-07-03T13:13:21;30.90;1.00
963;DHT22;469;48.770;9.176;2022-07-03T13:15:48;30.70;1.00
963;DHT22;469;48.770;9.176;2022-07-03T13:18:14;30.50;1.00
963;DHT22;469;48.770;9.176;2022-07-03T13:20:41;30.60;1.00
963;DHT22;469;48.770;9.176;2022-07-03T13:23:12;30.80;1.00
963;DHT22;469;48.770;9.176;2022-07-03T13:25:39;30.70;1.00
963;DHT22;469;48.770;9.176;2022-07-03T13:28:10;30.60;1.00
963;DHT22;469;48.770;9.176;2022-07-03T13:30:38;30.70;1.00
963;DHT22;469;48.770;9.176;2022-07-03T13:33:05;30.70;1.00
963;DHT22;469;48.770;9.176;2022-07-03T13:35:33;30.70;1.00
963;DHT22;469;48.770;9.176;2022-07-03T13:38:00;30.80;1.00
963;DHT22;469;48.770;9.176;2022-07-03T13:40:28;30.60;1.00
963;DHT22;469;48.770;9.176;2022-07-03T13:42:59;30.80;1.00
963;DHT22;469;48.770;9.176;2022-07-03T13:45:26;30.40;1.00
963;DHT22;469;48.770;9.176;2022-07-03T13:47:53;30.30;1.00
963;DHT22;469;48.770;9.176;2022-07-03T14:45:06;31.20;1.00
963;DHT22;469;48.770;9.176;2022-07-03T17:19:31;38.20;1.00
963;DHT22;469;48.770;9.176;2022-07-03T17:22:01;34.60;1.00
963;DHT22;469;48.770;9.176;2022-07-03T17:24:29;34.10;1.00
963;DHT22;469;48.770;9.176;2022-07-03T17:27:01;33.50;1.00
963;DHT22;469;48.770;9.176;2022-07-03T17:29:38;33.50;1.00
963;DHT22;469;48.770;9.176;2022-07-03T17:32:13;33.90;1.00
963;DHT22;469;48.770;9.176;2022-07-03T17:34:42;34.10;1.00
963;DHT22;469;48.770;9.176;2022-07-03T17:37:11;34.80;1.00
963;DHT22;469;48.770;9.176;2022-07-03T17:39:40;34.40;1.00
963;DHT22;469;48.770;9.176;2022-07-03T17:42:08;34.10;1.00
963;DHT22;469;48.770;9.176;2022-07-03T17:44:41;34.20;1.00
963;DHT22;469;48.770;9.176;2022-07-03T17:47:12;34.30;1.00
963;DHT22;469;48.770;9.176;2022-07-03T18:07:09;33.50;1.00
963;DHT22;469;48.770;9.176;2022-07-03T18:09:37;35.00;1.00
963;DHT22;469;48.770;9.176;2022-07-03T18:12:06;35.20;1.00
963;DHT22;469;48.770;9.176;2022-07-03T18:14:39;34.80;1.00
963;DHT22;469;48.770;9.176;2022-07-03T18:17:07;34.40;1.00
963;DHT22;469;48.770;9.176;2022-07-03T18:19:36;34.00;1.00
963;DHT22;469;48.770;9.176;2022-07-03T18:22:04;33.60;1.00
963;DHT22;469;48.770;9.176;2022-07-03T18:24:35;33.90;1.00
963;DHT22;469;48.770;9.176;2022-07-03T18:27:06;34.20;1.00
963;DHT22;469;48.770;9.176;2022-07-03T18:32:04;33.50;1.00
963;DHT22;469;48.770;9.176;2022-07-03T18:39:27;31.70;1.00
963;DHT22;469;48.770;9.176;2022-07-03T18:41:55;30.20;1.00
963;DHT22;469;48.770;9.176;2022-07-03T18:44:22;29.80;1.00
963;DHT22;469;48.770;9.176;2022-07-03T18:46:49;29.60;1.00
963;DHT22;469;48.770;9.176;2022-07-03T19:51:26;29.40;1.00
963;DHT22;469;48.770;9.176;2022-07-03T19:58:46;26.70;1.00
963;DHT22;469;48.770;9.176;2022-07-03T20:11:03;26.10;1.00
963;DHT22;469;48.770;9.176;2022-07-03T20:13:30;25.10;1.00
963;DHT22;469;48.770;9.176;2022-07-03T20:15:57;24.90;1.00
963;DHT22;469;48.770;9.176;2022-07-03T20:18:25;24.80;1.00
963;DHT22;469;48.770;9.176;2022-07-03T20:20:52;24.60;1.00
963;DHT22;469;48.770;9.176;2022-07-03T20:23:19;24.60;1.00
963;DHT22;469;48.770;9.176;2022-07-03T20:25:46;24.50;1.00
963;DHT22;469;48.770;9.176;2022-07-03T20:28:21;24.40;1.00
963;DHT22;469;48.770;9.176;2022-07-03T20:30:48;24.40;1.00
963;DHT22;469;48.770;9.176;2022-07-03T20:33:14;24.30;1.00
963;DHT22;469;48.770;9.176;2022-07-03T20:35:42;24.20;1.00
963;DHT22;469;48.770;9.176;2022-07-03T20:38:11;24.10;1.00
963;DHT22;469;48.770;9.176;2022-07-03T20:40:38;24.10;1.00
963;DHT22;469;48.770;9.176;2022-07-03T20:43:05;24.00;1.00
963;DHT22;469;48.770;9.176;2022-07-03T20:45:32;23.90;1.00
963;DHT22;469;48.770;9.176;2022-07-03T20:47:59;23.90;1.00
963;DHT22;469;48.770;9.176;2022-07-03T20:50:26;23.80;1.00
963;DHT22;469;48.770;9.176;2022-07-03T20:53:04;23.70;1.00
963;DHT22;469;48.770;9.176;2022-07-03T20:55:32;23.60;1.00
963;DHT22;469;48.770;9.176;2022-07-03T20:58:02;23.50;1.00
963;DHT22;469;48.770;9.176;2022-07-03T21:00:29;23.50;1.00
963;DHT22;469;48.770;9.176;2022-07-03T21:02:59;23.40;1.00
963;DHT22;469;48.770;9.176;2022-07-03T21:05:30;23.40;1.00
963;DHT22;469;48.770;9.176;2022-07-03T21:07:58;23.30;1.00
963;DHT22;469;48.770;9.176;2022-07-03T21:10:25;23.20;1.00
963;DHT22;469;48.770;9.176;2022-07-03T21:13:46;23.20;1.00
963;DHT22;469;48.770;9.176;2022-07-03T21:16:16;23.30;1.00
963;DHT22;469;48.770;9.176;2022-07-03T21:18:56;23.30;1.00
963;DHT22;469;48.770;9.176;2022-07-03T21:21:25;23.30;1.00
963;DHT22;469;48.770;9.176;2022-07-03T21:23:56;23.30;1.00
963;DHT22;469;48.770;9.176;2022-07-03T21:26:23;23.20;1.00
963;DHT22;469;48.770;9.176;2022-07-03T21:28:54;23.20;1.00
963;DHT22;469;48.770;9.176;2022-07-03T21:31:24;23.10;1.00
963;DHT22;469;48.770;9.176;2022-07-03T21:33:51;23.00;1.00
963;DHT22;469;48.770;9.176;2022-07-03T21:36:22;23.00;1.00
963;DHT22;469;48.770;9.176;2022-07-03T21:38:48;23.00;1.00
963;DHT22;469;48.770;9.176;2022-07-03T21:41:19;23.00;1.00
963;DHT22;469;48.770;9.176;2022-07-03T21:43:49;22.90;1.00
963;DHT22;469;48.770;9.176;2022-07-03T21:46:29;22.90;1.00
963;DHT22;469;48.770;9.176;2022-07-03T21:50:08;22.80;1.00
963;DHT22;469;48.770;9.176;2022-07-03T21:52:43;22.70;1.00
963;DHT22;469;48.770;9.176;2022-07-03T21:55:24;22.50;1.00
963;DHT22;469;48.770;9.176;2022-07-03T21:58:04;22.50;1.00
963;DHT22;469;48.770;9.176;2022-07-03T22:00:49;22.40;1.00
963;DHT22;469;48.770;9.176;2022-07-03T22:03:15;22.30;1.00
963;DHT22;469;48.770;9.176;2022-07-03T22:05:42;22.30;1.00
963;DHT22;469;48.770;9.176;2022-07-03T22:08:12;22.20;1.00
963;DHT22;469;48.770;9.176;2022-07-03T22:10:43;22.10;1.00
963;DHT22;469;48.770;9.176;2022-07-03T22:13:14;22.00;1.00
963;DHT22;469;48.770;9.176;2022-07-03T22:15:43;21.90;1.00
963;DHT22;469;48.770;9.176;2022-07-03T22:18:10;21.80;1.00
963;DHT22;469;48.770;9.176;2022-07-03T22:20:37;21.70;1.00
963;DHT22;469;48.770;9.176;2022-07-03T22:23:07;21.70;1.00
963;DHT22;469;48.770;9.176;2022-07-03T22:25:42;21.70;1.00
963;DHT22;469;48.770;9.176;2022-07-03T22:28:11;21.70;1.00
963;DHT22;469;48.770;9.176;2022-07-03T22:30:42;21.60;1.00
963;DHT22;469;48.770;9.176;2022-07-03T22:33:12;21.70;1.00
963;DHT22;469;48.770;9.176;2022-07-03T22:35:39;21.60;1.00
963;DHT22;469;48.770;9.176;2022-07-03T22:38:06;21.60;1.00
963;DHT22;469;48.770;9.176;2022-07-03T22:40:32;21.60;1.00
963;DHT22;469;48.770;9.176;2022-07-03T22:42:59;21.60;1.00
963;DHT22;469;48.770;9.176;2022-07-03T22:45:26;21.60;1.00
963;DHT22;469;48.770;9.176;2022-07-03T22:47:54;21.50;1.00
963;DHT22;469;48.770;9.176;2022-07-03T22:50:21;21.50;1.00
963;DHT22;469;48.770;9.176;2022-07-03T22:52:47;21.40;1.00
963;DHT22;469;48.770;9.176;2022-07-03T22:55:14;21.40;1.00
963;DHT22;469;48.770;9.176;2022-07-03T22:57:41;21.40;1.00
963;DHT22;469;48.770;9.176;2022-07-03T23:00:09;21.40;1.00
963;DHT22;469;48.770;9.176;2022-07-03T23:02:37;21.40;1.00
963;DHT22;469;48.770;9.176;2022-07-03T23:05:08;21.40;1.00
963;DHT22;469;48.770;9.176;2022-07-03T23:07:35;21.40;1.00
963;DHT22;469;48.770;9.176;2022-07-03T23:10:02;21.40;1.00
963;DHT22;469;48.770;9.176;2022-07-03T23:12:28;21.30;1.00
963;DHT22;469;48.770;9.176;2022-07-03T23:14:55;21.20;1.00
963;DHT22;469;48.770;9.176;2022-07-03T23:17:22;21.20;1.00
963;DHT22;469;48.770;9.176;2022-07-03T23:19:49;21.40;1.00
963;DHT22;469;48.770;9.176;2022-07-03T23:22:17;21.50;1.00
963;DHT22;469;48.770;9.176;2022-07-03T23:24:43;21.70;1.00
963;DHT22;469;48.770;9.176;2022-07-03T23:27:10;21.80;1.00
963;DHT22;469;48.770;9.176;2022-07-03T23:29:37;21.90;1.00
963;DHT22;469;48.770;9.176;2022-07-03T23:32:05;22.00;1.00
963;DHT22;469;48.770;9.176;2022-07-03T23:34:31;22.10;1.00
963;DHT22;469;48.770;9.176;2022-07-03T23:36:58;22.20;1.00
963;DHT22;469;48.770;9.176;2022-07-03T23:39:26;22.40;1.00
963;DHT22;469;48.770;9.176;2022-07-03T23:41:53;22.40;1.00
963;DHT22;469;48.770;9.176;2022-07-03T23:44:19;22.50;1.00
963;DHT22;469;48.770;9.176;2022-07-03T23:46:46;22.50;1.00
963;DHT22;469;48.770;9.176;2022-07-03T23:49:13;22.50;1.00
963;DHT22;469;48.770;9.176;2022-07-03T23:51:57;22.50;1.00
963;DHT22;469;48.770;9.176;2022-07-03T23:54:27;22.60;1.00
963;DHT22;469;48.770;9.176;2022-07-03T23:56:53;22.70;1.00
963;DHT22;469;48.770;9.176;2022-07-03T23:59:20;22.70;1.00
